sensor_id;sensor_type;location;lat;lon;timestamp;P1;durP1;ratioP1;P2;durP2;ratioP2
76854;SDS011;66343;44.588;33.450;2023-06-24T07:20:52;9.88;;;5.15;;
76854;SDS011;66343;44.588;33.450;2023-06-24T07:23:23;9.63;;;5.15;;
76854;SDS011;66343;44.588;33.450;2023-06-24T07:25:52;20.23;;;6.20;;
76854;SDS011;66343;44.588;33.450;2023-06-24T07:28:21;8.85;;;4.85;;
76854;SDS011;66343;44.588;33.450;2023-06-24T07:30:52;9.27;;;4.30;;
76854;SDS011;66343;44.588;33.450;2023-06-24T07:33:22;9.02;;;4.60;;
76854;SDS011;66343;44.588;33.450;2023-06-24T07:35:59;9.73;;;4.57;;
76854;SDS011;66343;44.588;33.450;2023-06-24T07:38:28;8.90;;;5.03;;
76854;SDS011;66343;44.588;33.450;2023-06-24T07:40:58;12.02;;;4.80;;
76854;SDS011;66343;44.588;33.450;2023-06-24T07:43:27;9.48;;;4.97;;
76854;SDS011;66343;44.588;33.450;2023-06-24T07:45:56;9.23;;;4.88;;
76854;SDS011;66343;44.588;33.450;2023-06-24T07:48:25;14.82;;;5.22;;
76854;SDS011;66343;44.588;33.450;2023-06-24T07:50:54;9.07;;;4.70;;
76854;SDS011;66343;44.588;33.450;2023-06-24T07:53:26;9.30;;;4.90;;
76854;SDS011;66343;44.588;33.450;2023-06-24T07:55:58;11.10;;;5.00;;
76854;SDS011;66343;44.588;33.450;2023-06-24T07:58:27;9.38;;;4.78;;
76854;SDS011;66343;44.588;33.450;2023-06-24T08:00:56;16.10;;;5.25;;
76854;SDS011;66343;44.588;33.450;2023-06-24T08:03:26;9.48;;;5.07;;
76854;SDS011;66343;44.588;33.450;2023-06-24T08:05:56;9.15;;;4.38;;
76854;SDS011;66343;44.588;33.450;2023-06-24T08:08:25;11.48;;;4.38;;
76854;SDS011;66343;44.588;33.450;2023-06-24T08:10:54;9.00;;;5.03;;
76854;SDS011;66343;44.588;33.450;2023-06-24T08:13:23;8.65;;;4.32;;
76854;SDS011;66343;44.588;33.450;2023-06-24T08:15:52;8.82;;;4.63;;
76854;SDS011;66343;44.588;33.450;2023-06-24T08:18:22;8.23;;;4.50;;
76854;SDS011;66343;44.588;33.450;2023-06-24T08:20:51;10.75;;;4.38;;
76854;SDS011;66343;44.588;33.450;2023-06-24T08:23:24;7.70;;;4.30;;
76854;SDS011;66343;44.588;33.450;2023-06-24T08:25:54;8.63;;;4.65;;
76854;SDS011;66343;44.588;33.450;2023-06-24T08:28:43;8.63;;;4.20;;
76854;SDS011;66343;44.588;33.450;2023-06-24T08:31:11;10.38;;;4.85;;
76854;SDS011;66343;44.588;33.450;2023-06-24T08:33:44;7.78;;;4.38;;
76854;SDS011;66343;44.588;33.450;2023-06-24T08:36:16;9.05;;;4.50;;
76854;SDS011;66343;44.588;33.450;2023-06-24T08:38:45;8.75;;;4.43;;
76854;SDS011;66343;44.588;33.450;2023-06-24T08:41:18;6.80;;;3.75;;
76854;SDS011;66343;44.588;33.450;2023-06-24T08:43:49;9.18;;;4.85;;
76854;SDS011;66343;44.588;33.450;2023-06-24T08:46:24;9.52;;;4.63;;
76854;SDS011;66343;44.588;33.450;2023-06-24T08:48:58;8.52;;;4.53;;
76854;SDS011;66343;44.588;33.450;2023-06-24T08:51:35;9.60;;;4.40;;
76854;SDS011;66343;44.588;33.450;2023-06-24T08:54:09;8.80;;;4.65;;
76854;SDS011;66343;44.588;33.450;2023-06-24T08:56:41;11.20;;;4.60;;
76854;SDS011;66343;44.588;33.450;2023-06-24T08:59:10;8.77;;;4.72;;
76854;SDS011;66343;44.588;33.450;2023-06-24T09:01:43;8.82;;;4.85;;
76854;SDS011;66343;44.588;33.450;2023-06-24T09:04:13;8.85;;;4.82;;
76854;SDS011;66343;44.588;33.450;2023-06-24T09:06:42;11.85;;;5.70;;
76854;SDS011;66343;44.588;33.450;2023-06-24T09:09:18;10.23;;;5.47;;
76854;SDS011;66343;44.588;33.450;2023-06-24T09:11:57;10.20;;;5.57;;
76854;SDS011;66343;44.588;33.450;2023-06-24T09:14:28;9.75;;;5.28;;
76854;SDS011;66343;44.588;33.450;2023-06-24T09:17:04;8.75;;;5.43;;
76854;SDS011;66343;44.588;33.450;2023-06-24T09:19:37;10.75;;;5.50;;
76854;SDS011;66343;44.588;33.450;2023-06-24T09:22:07;8.43;;;4.78;;
76854;SDS011;66343;44.588;33.450;2023-06-24T09:24:45;10.18;;;5.22;;
76854;SDS011;66343;44.588;33.450;2023-06-24T09:27:22;9.05;;;4.78;;
76854;SDS011;66343;44.588;33.450;2023-06-24T09:29:55;8.23;;;4.78;;
76854;SDS011;66343;44.588;33.450;2023-06-24T09:32:30;9.52;;;4.88;;
76854;SDS011;66343;44.588;33.450;2023-06-24T09:35:02;8.52;;;4.40;;
76854;SDS011;66343;44.588;33.450;2023-06-24T09:37:35;10.27;;;4.78;;
76854;SDS011;66343;44.588;33.450;2023-06-24T09:40:04;8.52;;;4.88;;
76854;SDS011;66343;44.588;33.450;2023-06-24T09:42:55;10.38;;;4.90;;
76854;SDS011;66343;44.588;33.450;2023-06-24T09:45:30;8.40;;;4.43;;
76854;SDS011;66343;44.588;33.450;2023-06-24T09:48:00;11.65;;;4.50;;
76854;SDS011;66343;44.588;33.450;2023-06-24T09:50:32;8.90;;;4.47;;
76854;SDS011;66343;44.588;33.450;2023-06-24T09:53:02;8.85;;;4.20;;
76854;SDS011;66343;44.588;33.450;2023-06-24T09:55:32;9.32;;;4.45;;
76854;SDS011;66343;44.588;33.450;2023-06-24T10:00:34;9.60;;;4.30;;
76854;SDS011;66343;44.588;33.450;2023-06-24T10:03:08;10.07;;;3.72;;
76854;SDS011;66343;44.588;33.450;2023-06-24T10:05:40;11.93;;;4.50;;
76854;SDS011;66343;44.588;33.450;2023-06-24T10:08:13;7.80;;;3.80;;
76854;SDS011;66343;44.588;33.450;2023-06-24T10:10:44;10.30;;;4.50;;
76854;SDS011;66343;44.588;33.450;2023-06-24T10:13:13;9.55;;;4.30;;
76854;SDS011;66343;44.588;33.450;2023-06-24T10:15:42;11.57;;;4.25;;
76854;SDS011;66343;44.588;33.450;2023-06-24T10:21:08;12.20;;;4.60;;
76854;SDS011;66343;44.588;33.450;2023-06-24T10:26:35;9.60;;;4.00;;
76854;SDS011;66343;44.588;33.450;2023-06-24T10:29:08;8.70;;;4.13;;
76854;SDS011;66343;44.588;33.450;2023-06-24T10:37:11;10.63;;;3.95;;
76854;SDS011;66343;44.588;33.450;2023-06-24T10:42:37;10.70;;;5.13;;
76854;SDS011;66343;44.588;33.450;2023-06-24T10:45:16;8.23;;;3.80;;
76854;SDS011;66343;44.588;33.450;2023-06-24T10:47:51;10.00;;;4.63;;
76854;SDS011;66343;44.588;33.450;2023-06-24T10:50:28;9.70;;;3.85;;
76854;SDS011;66343;44.588;33.450;2023-06-24T10:52:57;7.63;;;3.92;;
76854;SDS011;66343;44.588;33.450;2023-06-24T10:55:30;8.23;;;3.25;;
76854;SDS011;66343;44.588;33.450;2023-06-24T10:58:09;7.93;;;3.83;;
76854;SDS011;66343;44.588;33.450;2023-06-24T11:00:40;8.60;;;4.18;;
76854;SDS011;66343;44.588;33.450;2023-06-24T11:03:14;9.25;;;3.92;;
76854;SDS011;66343;44.588;33.450;2023-06-24T11:05:45;7.57;;;3.78;;
76854;SDS011;66343;44.588;33.450;2023-06-24T11:08:17;7.43;;;3.50;;
76854;SDS011;66343;44.588;33.450;2023-06-24T11:10:47;9.45;;;3.50;;
76854;SDS011;66343;44.588;33.450;2023-06-24T11:13:19;11.27;;;4.20;;
76854;SDS011;66343;44.588;33.450;2023-06-24T11:15:49;8.40;;;3.83;;
76854;SDS011;66343;44.588;33.450;2023-06-24T11:20:53;8.80;;;3.80;;
76854;SDS011;66343;44.588;33.450;2023-06-24T11:23:23;8.73;;;3.97;;
76854;SDS011;66343;44.588;33.450;2023-06-24T11:25:52;10.57;;;4.07;;
76854;SDS011;66343;44.588;33.450;2023-06-24T11:28:26;9.35;;;4.00;;
76854;SDS011;66343;44.588;33.450;2023-06-24T11:30:58;8.52;;;4.53;;
76854;SDS011;66343;44.588;33.450;2023-06-24T11:33:35;10.63;;;3.63;;
76854;SDS011;66343;44.588;33.450;2023-06-24T11:36:11;9.10;;;3.67;;
76854;SDS011;66343;44.588;33.450;2023-06-24T11:38:45;10.07;;;4.68;;
76854;SDS011;66343;44.588;33.450;2023-06-24T11:41:20;8.90;;;4.10;;
76854;SDS011;66343;44.588;33.450;2023-06-24T11:43:51;9.23;;;4.28;;
76854;SDS011;66343;44.588;33.450;2023-06-24T11:46:27;10.75;;;4.32;;
76854;SDS011;66343;44.588;33.450;2023-06-24T11:49:05;12.80;;;4.20;;
76854;SDS011;66343;44.588;33.450;2023-06-24T11:51:36;8.25;;;4.07;;
76854;SDS011;66343;44.588;33.450;2023-06-24T11:54:06;9.20;;;4.13;;
76854;SDS011;66343;44.588;33.450;2023-06-24T11:56:38;11.15;;;4.55;;
76854;SDS011;66343;44.588;33.450;2023-06-24T11:59:21;10.10;;;4.30;;
76854;SDS011;66343;44.588;33.450;2023-06-24T12:01:56;8.90;;;3.55;;
76854;SDS011;66343;44.588;33.450;2023-06-24T12:04:29;8.55;;;3.92;;
76854;SDS011;66343;44.588;33.450;2023-06-24T12:07:00;9.20;;;3.97;;
76854;SDS011;66343;44.588;33.450;2023-06-24T12:09:30;10.80;;;4.30;;
76854;SDS011;66343;44.588;33.450;2023-06-24T12:14:35;7.68;;;3.92;;
76854;SDS011;66343;44.588;33.450;2023-06-24T12:17:04;11.35;;;4.47;;
76854;SDS011;66343;44.588;33.450;2023-06-24T12:19:37;11.07;;;4.25;;
76854;SDS011;66343;44.588;33.450;2023-06-24T12:22:07;8.60;;;4.30;;
76854;SDS011;66343;44.588;33.450;2023-06-24T12:24:37;7.75;;;3.88;;
76854;SDS011;66343;44.588;33.450;2023-06-24T12:27:06;9.13;;;4.00;;
76854;SDS011;66343;44.588;33.450;2023-06-24T12:29:40;8.57;;;4.15;;
76854;SDS011;66343;44.588;33.450;2023-06-24T12:32:12;10.80;;;4.13;;
76854;SDS011;66343;44.588;33.450;2023-06-24T12:37:11;9.73;;;3.92;;
76854;SDS011;66343;44.588;33.450;2023-06-24T12:39:43;8.10;;;4.05;;
76854;SDS011;66343;44.588;33.450;2023-06-24T12:42:16;9.20;;;4.35;;
76854;SDS011;66343;44.588;33.450;2023-06-24T12:44:48;8.70;;;3.80;;
76854;SDS011;66343;44.588;33.450;2023-06-24T12:47:20;8.90;;;4.03;;
76854;SDS011;66343;44.588;33.450;2023-06-24T12:49:53;10.10;;;3.92;;
76854;SDS011;66343;44.588;33.450;2023-06-24T12:58:39;10.27;;;4.18;;
76854;SDS011;66343;44.588;33.450;2023-06-24T13:01:11;8.00;;;4.10;;
76854;SDS011;66343;44.588;33.450;2023-06-24T13:06:28;10.10;;;4.00;;
76854;SDS011;66343;44.588;33.450;2023-06-24T13:09:00;7.57;;;3.90;;
76854;SDS011;66343;44.588;33.450;2023-06-24T13:11:34;9.95;;;4.50;;
76854;SDS011;66343;44.588;33.450;2023-06-24T13:14:14;7.38;;;3.97;;
76854;SDS011;66343;44.588;33.450;2023-06-24T13:16:44;9.75;;;4.10;;
76854;SDS011;66343;44.588;33.450;2023-06-24T13:19:14;7.80;;;3.92;;
76854;SDS011;66343;44.588;33.450;2023-06-24T13:21:46;9.20;;;3.95;;
76854;SDS011;66343;44.588;33.450;2023-06-24T13:24:16;9.07;;;4.10;;
76854;SDS011;66343;44.588;33.450;2023-06-24T13:26:48;10.95;;;4.15;;
76854;SDS011;66343;44.588;33.450;2023-06-24T13:29:19;7.28;;;3.58;;
76854;SDS011;66343;44.588;33.450;2023-06-24T13:31:52;7.90;;;3.92;;
76854;SDS011;66343;44.588;33.450;2023-06-24T13:34:31;8.68;;;3.88;;
76854;SDS011;66343;44.588;33.450;2023-06-24T13:37:06;9.88;;;3.80;;
76854;SDS011;66343;44.588;33.450;2023-06-24T13:39:36;7.22;;;3.72;;
76854;SDS011;66343;44.588;33.450;2023-06-24T13:42:06;8.52;;;3.92;;
76854;SDS011;66343;44.588;33.450;2023-06-24T13:44:44;9.77;;;4.13;;
76854;SDS011;66343;44.588;33.450;2023-06-24T13:47:16;8.23;;;3.67;;
76854;SDS011;66343;44.588;33.450;2023-06-24T13:49:48;8.52;;;3.70;;
76854;SDS011;66343;44.588;33.450;2023-06-24T13:52:20;8.10;;;3.75;;
76854;SDS011;66343;44.588;33.450;2023-06-24T13:57:19;8.88;;;3.95;;
76854;SDS011;66343;44.588;33.450;2023-06-24T14:08:26;8.90;;;3.63;;
76854;SDS011;66343;44.588;33.450;2023-06-24T14:11:02;8.73;;;4.10;;
76854;SDS011;66343;44.588;33.450;2023-06-24T14:13:41;7.57;;;3.22;;
76854;SDS011;66343;44.588;33.450;2023-06-24T14:16:20;9.63;;;4.15;;
76854;SDS011;66343;44.588;33.450;2023-06-24T14:18:50;7.82;;;3.53;;
76854;SDS011;66343;44.588;33.450;2023-06-24T14:21:21;9.95;;;4.45;;
76854;SDS011;66343;44.588;33.450;2023-06-24T14:23:51;9.30;;;4.07;;
76854;SDS011;66343;44.588;33.450;2023-06-24T14:26:24;7.32;;;3.50;;
76854;SDS011;66343;44.588;33.450;2023-06-24T14:28:58;9.77;;;4.00;;
76854;SDS011;66343;44.588;33.450;2023-06-24T14:31:32;7.22;;;4.10;;
76854;SDS011;66343;44.588;33.450;2023-06-24T14:35:12;9.07;;;4.00;;
76854;SDS011;66343;44.588;33.450;2023-06-24T14:37:54;9.07;;;3.78;;
76854;SDS011;66343;44.588;33.450;2023-06-24T14:40:31;7.60;;;3.45;;
76854;SDS011;66343;44.588;33.450;2023-06-24T14:46:09;8.00;;;3.78;;
76854;SDS011;66343;44.588;33.450;2023-06-24T14:49:35;8.05;;;3.30;;
76854;SDS011;66343;44.588;33.450;2023-06-24T14:54:32;8.27;;;4.50;;
76854;SDS011;66343;44.588;33.450;2023-06-24T14:58:55;7.07;;;3.95;;
76854;SDS011;66343;44.588;33.450;2023-06-24T15:04:13;8.82;;;4.00;;
76854;SDS011;66343;44.588;33.450;2023-06-24T15:07:08;8.18;;;3.80;;
76854;SDS011;66343;44.588;33.450;2023-06-24T15:15:10;7.93;;;3.65;;
76854;SDS011;66343;44.588;33.450;2023-06-24T15:17:56;7.25;;;3.70;;
76854;SDS011;66343;44.588;33.450;2023-06-24T15:20:25;8.93;;;3.72;;
76854;SDS011;66343;44.588;33.450;2023-06-24T15:22:54;7.55;;;3.33;;
76854;SDS011;66343;44.588;33.450;2023-06-24T15:25:24;8.40;;;4.30;;
76854;SDS011;66343;44.588;33.450;2023-06-24T15:31:15;7.28;;;3.83;;
76854;SDS011;66343;44.588;33.450;2023-06-24T15:33:49;8.70;;;4.18;;
76854;SDS011;66343;44.588;33.450;2023-06-24T15:36:21;8.23;;;4.15;;
76854;SDS011;66343;44.588;33.450;2023-06-24T15:39:01;10.07;;;3.85;;
76854;SDS011;66343;44.588;33.450;2023-06-24T15:41:36;8.25;;;3.75;;
76854;SDS011;66343;44.588;33.450;2023-06-24T15:44:13;8.13;;;3.53;;
76854;SDS011;66343;44.588;33.450;2023-06-24T15:46:48;10.15;;;4.25;;
76854;SDS011;66343;44.588;33.450;2023-06-24T15:49:25;8.70;;;4.20;;
76854;SDS011;66343;44.588;33.450;2023-06-24T15:51:59;9.48;;;4.28;;
76854;SDS011;66343;44.588;33.450;2023-06-24T15:57:52;7.75;;;3.90;;
76854;SDS011;66343;44.588;33.450;2023-06-24T16:00:21;9.15;;;4.05;;
76854;SDS011;66343;44.588;33.450;2023-06-24T16:02:50;9.18;;;4.38;;
76854;SDS011;66343;44.588;33.450;2023-06-24T16:05:20;9.05;;;3.70;;
76854;SDS011;66343;44.588;33.450;2023-06-24T16:10:25;10.18;;;3.90;;
76854;SDS011;66343;44.588;33.450;2023-06-24T16:12:57;8.88;;;3.88;;
76854;SDS011;66343;44.588;33.450;2023-06-24T16:15:29;7.32;;;3.70;;
76854;SDS011;66343;44.588;33.450;2023-06-24T16:18:03;8.05;;;3.92;;
76854;SDS011;66343;44.588;33.450;2023-06-24T16:20:34;7.68;;;3.70;;
76854;SDS011;66343;44.588;33.450;2023-06-24T16:23:11;9.10;;;3.47;;
76854;SDS011;66343;44.588;33.450;2023-06-24T16:25:45;10.77;;;4.45;;
76854;SDS011;66343;44.588;33.450;2023-06-24T16:30:51;9.23;;;3.78;;
76854;SDS011;66343;44.588;33.450;2023-06-24T16:33:23;8.30;;;3.55;;
76854;SDS011;66343;44.588;33.450;2023-06-24T16:35:53;7.95;;;3.88;;
76854;SDS011;66343;44.588;33.450;2023-06-24T16:38:23;9.35;;;3.67;;
76854;SDS011;66343;44.588;33.450;2023-06-24T16:40:59;7.45;;;3.38;;
76854;SDS011;66343;44.588;33.450;2023-06-24T16:43:34;10.10;;;4.10;;
76854;SDS011;66343;44.588;33.450;2023-06-24T16:46:06;10.40;;;4.25;;
76854;SDS011;66343;44.588;33.450;2023-06-24T16:48:37;9.93;;;3.90;;
76854;SDS011;66343;44.588;33.450;2023-06-24T16:51:10;7.82;;;3.80;;
76854;SDS011;66343;44.588;33.450;2023-06-24T16:53:41;8.52;;;4.03;;
76854;SDS011;66343;44.588;33.450;2023-06-24T16:56:13;9.00;;;4.32;;
76854;SDS011;66343;44.588;33.450;2023-06-24T16:58:50;9.65;;;4.13;;
76854;SDS011;66343;44.588;33.450;2023-06-24T17:01:19;11.90;;;4.30;;
76854;SDS011;66343;44.588;33.450;2023-06-24T17:03:54;8.82;;;4.00;;
76854;SDS011;66343;44.588;33.450;2023-06-24T17:06:24;8.75;;;3.60;;
76854;SDS011;66343;44.588;33.450;2023-06-24T17:08:53;9.48;;;4.18;;
76854;SDS011;66343;44.588;33.450;2023-06-24T17:11:27;11.52;;;4.03;;
76854;SDS011;66343;44.588;33.450;2023-06-24T17:13:56;9.85;;;4.38;;
76854;SDS011;66343;44.588;33.450;2023-06-24T17:16:28;8.82;;;4.05;;
76854;SDS011;66343;44.588;33.450;2023-06-24T17:19:01;9.55;;;4.20;;
76854;SDS011;66343;44.588;33.450;2023-06-24T17:21:39;11.38;;;4.63;;
76854;SDS011;66343;44.588;33.450;2023-06-24T17:24:08;8.93;;;4.22;;
76854;SDS011;66343;44.588;33.450;2023-06-24T17:26:40;9.68;;;4.88;;
76854;SDS011;66343;44.588;33.450;2023-06-24T17:29:13;9.95;;;5.20;;
76854;SDS011;66343;44.588;33.450;2023-06-24T17:31:46;9.27;;;4.55;;
76854;SDS011;66343;44.588;33.450;2023-06-24T17:36:49;9.27;;;4.95;;
76854;SDS011;66343;44.588;33.450;2023-06-24T17:39:21;10.32;;;4.97;;
76854;SDS011;66343;44.588;33.450;2023-06-24T17:41:56;10.93;;;6.65;;
76854;SDS011;66343;44.588;33.450;2023-06-24T17:44:29;11.27;;;6.20;;
76854;SDS011;66343;44.588;33.450;2023-06-24T17:46:59;14.05;;;8.43;;
76854;SDS011;66343;44.588;33.450;2023-06-24T17:49:31;14.40;;;8.70;;
76854;SDS011;66343;44.588;33.450;2023-06-24T17:52:03;12.32;;;7.55;;
76854;SDS011;66343;44.588;33.450;2023-06-24T17:54:36;13.75;;;7.03;;
76854;SDS011;66343;44.588;33.450;2023-06-24T18:00:50;14.02;;;6.75;;
76854;SDS011;66343;44.588;33.450;2023-06-24T18:03:24;12.82;;;7.07;;
76854;SDS011;66343;44.588;33.450;2023-06-24T18:05:59;11.80;;;6.95;;
76854;SDS011;66343;44.588;33.450;2023-06-24T18:08:35;15.18;;;7.93;;
76854;SDS011;66343;44.588;33.450;2023-06-24T18:11:10;13.32;;;7.18;;
76854;SDS011;66343;44.588;33.450;2023-06-24T18:13:44;13.90;;;7.38;;
76854;SDS011;66343;44.588;33.450;2023-06-24T18:16:18;10.70;;;5.82;;
76854;SDS011;66343;44.588;33.450;2023-06-24T18:18:48;10.02;;;5.43;;
76854;SDS011;66343;44.588;33.450;2023-06-24T18:21:20;9.50;;;5.00;;
76854;SDS011;66343;44.588;33.450;2023-06-24T18:23:51;11.30;;;4.88;;
76854;SDS011;66343;44.588;33.450;2023-06-24T18:26:25;10.02;;;4.75;;
76854;SDS011;66343;44.588;33.450;2023-06-24T18:28:56;9.52;;;5.05;;
76854;SDS011;66343;44.588;33.450;2023-06-24T18:31:29;9.95;;;5.28;;
76854;SDS011;66343;44.588;33.450;2023-06-24T18:34:01;10.85;;;5.05;;
76854;SDS011;66343;44.588;33.450;2023-06-24T18:36:33;10.88;;;5.32;;
76854;SDS011;66343;44.588;33.450;2023-06-24T18:39:05;11.05;;;6.35;;
76854;SDS011;66343;44.588;33.450;2023-06-24T18:41:38;10.10;;;5.40;;
76854;SDS011;66343;44.588;33.450;2023-06-24T18:44:10;12.02;;;6.65;;
76854;SDS011;66343;44.588;33.450;2023-06-24T18:46:39;11.77;;;7.60;;
76854;SDS011;66343;44.588;33.450;2023-06-24T18:49:14;13.73;;;7.40;;
76854;SDS011;66343;44.588;33.450;2023-06-24T18:51:43;14.27;;;7.28;;
76854;SDS011;66343;44.588;33.450;2023-06-24T18:54:16;11.07;;;6.60;;
76854;SDS011;66343;44.588;33.450;2023-06-24T18:56:55;14.98;;;7.35;;
76854;SDS011;66343;44.588;33.450;2023-06-24T18:59:28;12.70;;;6.43;;
76854;SDS011;66343;44.588;33.450;2023-06-24T19:02:03;12.68;;;6.07;;
76854;SDS011;66343;44.588;33.450;2023-06-24T19:05:01;12.27;;;5.97;;
76854;SDS011;66343;44.588;33.450;2023-06-24T19:07:36;11.43;;;5.82;;
76854;SDS011;66343;44.588;33.450;2023-06-24T19:10:10;12.20;;;6.47;;
76854;SDS011;66343;44.588;33.450;2023-06-24T19:12:49;10.75;;;5.90;;
76854;SDS011;66343;44.588;33.450;2023-06-24T19:20:03;12.18;;;6.35;;
76854;SDS011;66343;44.588;33.450;2023-06-24T19:22:37;13.75;;;6.70;;
76854;SDS011;66343;44.588;33.450;2023-06-24T19:25:09;12.55;;;6.18;;
76854;SDS011;66343;44.588;33.450;2023-06-24T19:27:43;14.48;;;7.18;;
76854;SDS011;66343;44.588;33.450;2023-06-24T19:30:16;14.85;;;7.15;;
76854;SDS011;66343;44.588;33.450;2023-06-24T19:33:13;15.50;;;8.05;;
76854;SDS011;66343;44.588;33.450;2023-06-24T19:35:47;18.08;;;8.27;;
76854;SDS011;66343;44.588;33.450;2023-06-24T19:38:22;17.67;;;8.00;;
76854;SDS011;66343;44.588;33.450;2023-06-24T19:40:54;17.63;;;8.90;;
76854;SDS011;66343;44.588;33.450;2023-06-24T19:43:46;17.25;;;8.30;;
76854;SDS011;66343;44.588;33.450;2023-06-24T19:46:20;13.93;;;6.82;;
76854;SDS011;66343;44.588;33.450;2023-06-24T19:49:09;16.67;;;7.35;;
76854;SDS011;66343;44.588;33.450;2023-06-24T19:51:42;13.68;;;7.32;;
76854;SDS011;66343;44.588;33.450;2023-06-24T19:54:12;15.52;;;6.88;;
76854;SDS011;66343;44.588;33.450;2023-06-24T19:56:43;15.35;;;7.57;;
76854;SDS011;66343;44.588;33.450;2023-06-24T19:59:12;16.67;;;7.75;;
76854;SDS011;66343;44.588;33.450;2023-06-24T20:01:44;12.70;;;7.18;;
76854;SDS011;66343;44.588;33.450;2023-06-24T20:04:16;14.25;;;7.30;;
76854;SDS011;66343;44.588;33.450;2023-06-24T20:06:49;14.40;;;6.85;;
76854;SDS011;66343;44.588;33.450;2023-06-24T20:09:21;14.25;;;7.13;;
76854;SDS011;66343;44.588;33.450;2023-06-24T20:11:55;17.42;;;7.20;;
76854;SDS011;66343;44.588;33.450;2023-06-24T20:14:27;16.23;;;7.72;;
76854;SDS011;66343;44.588;33.450;2023-06-24T20:17:00;15.02;;;7.95;;
76854;SDS011;66343;44.588;33.450;2023-06-24T20:19:35;18.17;;;8.55;;
76854;SDS011;66343;44.588;33.450;2023-06-24T20:22:07;12.95;;;7.75;;
76854;SDS011;66343;44.588;33.450;2023-06-24T20:24:41;15.50;;;7.80;;
76854;SDS011;66343;44.588;33.450;2023-06-24T20:27:17;15.52;;;8.32;;
76854;SDS011;66343;44.588;33.450;2023-06-24T20:29:47;17.33;;;8.40;;
76854;SDS011;66343;44.588;33.450;2023-06-24T20:32:22;13.80;;;8.30;;
76854;SDS011;66343;44.588;33.450;2023-06-24T20:34:53;15.98;;;8.05;;
76854;SDS011;66343;44.588;33.450;2023-06-24T20:37:25;15.40;;;8.20;;
76854;SDS011;66343;44.588;33.450;2023-06-24T20:39:59;16.10;;;8.27;;
76854;SDS011;66343;44.588;33.450;2023-06-24T20:42:33;16.20;;;7.60;;
76854;SDS011;66343;44.588;33.450;2023-06-24T20:45:35;15.00;;;8.00;;
76854;SDS011;66343;44.588;33.450;2023-06-24T20:48:05;16.60;;;8.18;;
76854;SDS011;66343;44.588;33.450;2023-06-24T20:50:40;14.02;;;8.10;;
76854;SDS011;66343;44.588;33.450;2023-06-24T20:53:12;11.20;;;6.60;;
76854;SDS011;66343;44.588;33.450;2023-06-24T20:55:43;13.35;;;6.68;;
76854;SDS011;66343;44.588;33.450;2023-06-24T20:58:19;16.38;;;7.38;;
76854;SDS011;66343;44.588;33.450;2023-06-24T21:00:52;15.65;;;7.63;;
76854;SDS011;66343;44.588;33.450;2023-06-24T21:03:26;11.80;;;7.10;;
76854;SDS011;66343;44.588;33.450;2023-06-24T21:05:56;13.38;;;7.40;;
76854;SDS011;66343;44.588;33.450;2023-06-24T21:08:34;13.85;;;7.03;;
76854;SDS011;66343;44.588;33.450;2023-06-24T21:11:10;17.05;;;7.55;;
76854;SDS011;66343;44.588;33.450;2023-06-24T21:13:40;12.88;;;6.93;;
76854;SDS011;66343;44.588;33.450;2023-06-24T21:16:13;16.02;;;7.30;;
76854;SDS011;66343;44.588;33.450;2023-06-24T21:18:54;16.75;;;7.10;;
76854;SDS011;66343;44.588;33.450;2023-06-24T21:21:38;13.32;;;7.22;;
76854;SDS011;66343;44.588;33.450;2023-06-24T21:24:30;14.88;;;7.13;;
76854;SDS011;66343;44.588;33.450;2023-06-24T21:27:01;16.00;;;7.15;;
76854;SDS011;66343;44.588;33.450;2023-06-24T21:29:31;13.82;;;7.35;;
76854;SDS011;66343;44.588;33.450;2023-06-24T21:32:02;14.70;;;7.47;;
76854;SDS011;66343;44.588;33.450;2023-06-24T21:34:33;14.27;;;7.28;;
76854;SDS011;66343;44.588;33.450;2023-06-24T21:37:08;12.50;;;6.82;;
76854;SDS011;66343;44.588;33.450;2023-06-24T21:39:41;15.75;;;7.97;;
76854;SDS011;66343;44.588;33.450;2023-06-24T21:42:16;11.45;;;6.80;;
76854;SDS011;66343;44.588;33.450;2023-06-24T21:44:45;17.25;;;7.22;;
76854;SDS011;66343;44.588;33.450;2023-06-24T21:47:16;12.95;;;7.18;;
76854;SDS011;66343;44.588;33.450;2023-06-24T21:49:57;13.90;;;7.35;;
76854;SDS011;66343;44.588;33.450;2023-06-24T21:52:27;16.23;;;7.55;;
76854;SDS011;66343;44.588;33.450;2023-06-24T21:55:09;13.98;;;7.50;;
76854;SDS011;66343;44.588;33.450;2023-06-24T21:57:42;14.90;;;7.15;;
76854;SDS011;66343;44.588;33.450;2023-06-24T22:00:43;13.35;;;7.20;;
76854;SDS011;66343;44.588;33.450;2023-06-24T22:03:20;14.10;;;6.53;;
76854;SDS011;66343;44.588;33.450;2023-06-24T22:05:55;13.18;;;7.55;;
76854;SDS011;66343;44.588;33.450;2023-06-24T22:08:28;11.93;;;6.82;;
76854;SDS011;66343;44.588;33.450;2023-06-24T22:11:00;13.38;;;6.75;;
76854;SDS011;66343;44.588;33.450;2023-06-24T22:13:32;12.20;;;6.78;;
76854;SDS011;66343;44.588;33.450;2023-06-24T22:16:10;11.25;;;6.82;;
76854;SDS011;66343;44.588;33.450;2023-06-24T22:18:44;12.25;;;6.70;;
76854;SDS011;66343;44.588;33.450;2023-06-24T22:21:16;12.07;;;6.50;;
76854;SDS011;66343;44.588;33.450;2023-06-24T22:23:47;11.95;;;6.53;;
76854;SDS011;66343;44.588;33.450;2023-06-24T22:26:21;11.55;;;6.65;;
76854;SDS011;66343;44.588;33.450;2023-06-24T22:28:53;12.40;;;6.75;;
76854;SDS011;66343;44.588;33.450;2023-06-24T22:31:24;14.00;;;6.10;;
76854;SDS011;66343;44.588;33.450;2023-06-24T22:33:54;9.98;;;6.35;;
76854;SDS011;66343;44.588;33.450;2023-06-24T22:36:27;12.48;;;6.43;;
76854;SDS011;66343;44.588;33.450;2023-06-24T22:38:56;12.82;;;6.68;;
76854;SDS011;66343;44.588;33.450;2023-06-24T22:41:26;10.70;;;5.80;;
76854;SDS011;66343;44.588;33.450;2023-06-24T22:44:00;15.20;;;5.90;;
76854;SDS011;66343;44.588;33.450;2023-06-24T22:46:33;14.57;;;5.93;;
76854;SDS011;66343;44.588;33.450;2023-06-24T22:49:09;12.48;;;5.50;;
76854;SDS011;66343;44.588;33.450;2023-06-24T22:51:41;10.18;;;6.25;;
76854;SDS011;66343;44.588;33.450;2023-06-24T22:56:45;9.43;;;5.40;;
76854;SDS011;66343;44.588;33.450;2023-06-24T22:59:14;11.80;;;5.65;;
76854;SDS011;66343;44.588;33.450;2023-06-24T23:01:43;9.73;;;5.90;;
76854;SDS011;66343;44.588;33.450;2023-06-24T23:04:15;13.18;;;6.22;;
76854;SDS011;66343;44.588;33.450;2023-06-24T23:09:27;10.15;;;5.40;;
76854;SDS011;66343;44.588;33.450;2023-06-24T23:11:59;11.98;;;5.63;;
76854;SDS011;66343;44.588;33.450;2023-06-24T23:14:35;10.82;;;5.63;;
76854;SDS011;66343;44.588;33.450;2023-06-24T23:17:06;11.60;;;5.75;;
76854;SDS011;66343;44.588;33.450;2023-06-24T23:19:37;13.75;;;5.97;;
76854;SDS011;66343;44.588;33.450;2023-06-24T23:22:09;10.60;;;5.20;;
76854;SDS011;66343;44.588;33.450;2023-06-24T23:24:42;11.77;;;5.22;;
76854;SDS011;66343;44.588;33.450;2023-06-24T23:27:22;10.68;;;5.57;;
76854;SDS011;66343;44.588;33.450;2023-06-24T23:30:07;10.98;;;5.90;;
76854;SDS011;66343;44.588;33.450;2023-06-24T23:32:41;10.82;;;6.05;;
76854;SDS011;66343;44.588;33.450;2023-06-24T23:35:14;10.68;;;5.28;;
76854;SDS011;66343;44.588;33.450;2023-06-24T23:37:47;11.77;;;6.03;;
76854;SDS011;66343;44.588;33.450;2023-06-24T23:40:22;12.30;;;6.32;;
76854;SDS011;66343;44.588;33.450;2023-06-24T23:42:57;11.88;;;6.03;;
76854;SDS011;66343;44.588;33.450;2023-06-24T23:45:29;10.55;;;5.97;;
76854;SDS011;66343;44.588;33.450;2023-06-24T23:48:02;13.30;;;6.32;;
76854;SDS011;66343;44.588;33.450;2023-06-24T23:50:42;12.07;;;5.40;;
76854;SDS011;66343;44.588;33.450;2023-06-24T23:53:18;11.73;;;5.57;;